Observations for MINNEAPOLIS-ST PAUL, MN (MSP)

KMSP 261853Z 30007KT 10SM CLR 33/15 A2970 RMK AO2 SLP052 T03330150 $
KMSP 261753Z 31011KT 10SM CLR 33/17 A2971 RMK AO2 SLP054 T03280172 10328 20211 58001 $  
KMSP 261653Z 27007KT 10SM CLR 31/18 A2972 RMK AO2 SLP055 T03110178 $
KMSP 261553Z VRB03KT 10SM CLR 29/18 A2972 RMK AO2 SLP056 T02890178 $
KMSP 261453Z 24005KT 10SM CLR 26/17 A2972 RMK AO2 SLP057 T02610172 50000 $  
KMSP 261353Z 23005KT 10SM CLR 24/17 A2972 RMK AO2 SLP057 T02440172 $
KMSP 261253Z 22008KT 10SM CLR 23/17 A2972 RMK AO2 SLP057 T02280167 $
KMSP 261153Z 23007KT 10SM CLR 21/17 A2971 RMK AO2 SLP056 T02110167 10217 20194 53007 $  
KMSP 261053Z 22006KT 10SM CLR 20/17 A2970 RMK AO2 SLP052 T02000167 $
KMSP 260953Z 21005KT 10SM CLR 19/17 A2969 RMK AO2 SLP049 T01940167 $
KMSP 260853Z 20004KT 10SM CLR 20/16 A2969 RMK AO2 SLP048 T02000161 55004 $  
KMSP 260753Z 22006KT 10SM CLR 21/16 A2969 RMK AO2 SLP047 T02060161 $
KMSP 260653Z 22007KT 10SM CLR 21/16 A2970 RMK AO2 SLP050 T02110156 $
KMSP 260553Z 22004KT 10SM CLR 22/16 A2971 RMK AO2 SLP053 T02170161 10294 20217 403220189 50002 $
KMSP 260453Z 22005KT 10SM FEW240 22/16 A2971 RMK AO2 SLP055 T02220161   
KMSP 260353Z 18006KT 10SM FEW240 23/16 A2971 RMK AO2 SLP055 T02330156   
KMSP 260253Z 15007KT 10SM SCT240 23/16 A2970 RMK AO2 SLP052 T02280161 53013 
KMSP 260153Z 20005KT 10SM FEW065 SCT240 25/16 A2969 RMK AO2 SLP047 CB DSNT E-SE MOV E T02500156 
KMSP 260053Z 24011G20KT 10SM FEW065 SCT250 27/14 A2967 RMK AO2 SLP043 CB DSNT E-S MOV E T02670144   
KMSP 252353Z VRB03KT 10SM FEW065 SCT250 29/14 A2966 RMK AO2 LTG DSNT E RAE2256 SLP039 CB DSNT E MOV E P0000 60000 T02940144 10322 20256 58012   
KMSP 252253Z 31013G21KT 10SM -RA SCT065 BKN110 BKN250 26/14 A2969 RMK AO2 PK WND 33040/2221 WSHFT 2215 LTG DSNT ALQDS RAB46 SLP050 CB DSNT N-NE MOV E P0000 T02560139   
KMSP 252235Z 31019G31KT 10SM SCT065 BKN110 BKN250 27/14 A2969 RMK AO2 PK WND 33040/2221 WSHFT 2215 LTG DSNT W-NE CB DSNT NW-NE MOV E T02720139
KMSP 252153Z 26010G19KT 10SM SCT065 BKN250 32/16 A2967 RMK AO2 LTG DSNT W-N SLP042 CB DSNT W-NW MOV E T03170156 
KMSP 252053Z 25009KT 10SM SCT065 BKN250 32/17 A2970 RMK AO2 SLP049 CB DSNT E-NW MOV E T03170172 58022   
KMSP 251953Z 26009KT 10SM FEW060 31/17 A2971 RMK AO2 LTG DSNT N SLP054 CB DSNT N AND E-S AND SW MOV E T03110167 
KMSP 251853Z 23007KT 10SM FEW060 30/18 A2975 RMK AO2 SLP067 TCU DSNT W-N T03000183